El Hierro > ESTACION METEOROLÓGICA Vivero Forestal

DATOS ACTUALES Online

Ultima actulizacion 32 minutos

12.6 ºC

Temperatura

100

Humedad (%)

904.7

Presión (mb)

0.5

Precipitación (mm)

1.8 NW

Viento (Km/h)

DATOS DIARIOS

Temperatura últimas 24 horas (ºC)

Humedad últimas 24 horas (%)

Presión atmosférica últimas 24 horas (mb)

Precipitaciones últimas 23 horas (mm)

Viento últimas 24 horas (Km/h)

Hora Temperatura (°C) ºC Precipitación (mm) mm Presión (mb) mb Humedad (%) % Viento (Km/h) km/h
28 - 10:00 14.4 0 904 90 2.9 NO
28 - 11:00 13.7 0 904 95 2.5 N
28 - 12:00 13.9 0 904 94 1.1 N
28 - 13:00 15.1 0 905 88 1.1 N
28 - 14:00 15.7 0 904 88 2.9 N
28 - 15:00 15 0 904 92 3.2 O
28 - 16:00 15.2 0 904 90 1.1 NO
28 - 17:00 15.7 0 904 87 1.8 S
28 - 18:00 15.7 0 904 84 3.2 N
28 - 19:00 14.1 0 904 94 1.8 N
28 - 20:00 13.5 0 904 97 1.4 N
28 - 21:00 12.9 0 905 98 0.7 N
28 - 22:00 12.8 0 905 99 2.5 O
28 - 23:00 13.1 0 905 99 0.7 NO
29 - 00:00 12.1 0 905 99 2.9 O
29 - 01:00 12.1 0 905 99 1.8 NW
29 - 02:00 12.4 0.1 904 100 1.1 N
29 - 03:00 12.1 0.2 904 100 0.7 O
29 - 04:00 11.7 0.2 904 100 2.2 N
29 - 05:00 12.3 0.4 904 100 0 O
29 - 06:00 11.6 0.4 904 100 1.1 SO
29 - 07:00 11.8 0.4 904 100 0 SW
29 - 08:00 12.3 0.4 904 100 1.8 N
29 - 09:00 12.6 0.5 905 100 1.8 NW
29 - 10:00
Apalmet utiliza cookies propias y de terceros para mejorar la usabilidad y la experiencia web. Política de cookies.